createdAt,value
2022-11-30T00:01:11.468Z,5.56
2022-11-30T00:03:39.159Z,5.63
2022-11-30T00:06:07.221Z,5.77
2022-11-30T00:08:34.583Z,5.71
2022-11-30T00:11:02.104Z,5.65
2022-11-30T00:13:29.561Z,5.59
2022-11-30T00:16:02.444Z,5.66
2022-11-30T00:18:29.926Z,5.73
2022-11-30T00:21:00.582Z,5.73
2022-11-30T00:23:28.199Z,5.77
2022-11-30T00:25:55.675Z,5.76
2022-11-30T00:28:23.144Z,5.77
2022-11-30T00:30:58.563Z,5.74
2022-11-30T00:33:27.544Z,5.85
2022-11-30T00:35:59.293Z,5.84
2022-11-30T00:38:27.334Z,5.78
2022-11-30T00:40:54.675Z,5.79
2022-11-30T00:43:22.133Z,5.82
2022-11-30T00:45:49.663Z,5.78
2022-11-30T00:48:17.161Z,5.86
2022-11-30T00:50:45.959Z,5.77
2022-11-30T00:53:13.436Z,5.74
2022-11-30T00:55:40.963Z,5.80
2022-11-30T00:58:08.839Z,5.82
2022-11-30T01:00:36.665Z,5.81
2022-11-30T01:03:04.738Z,5.82
2022-11-30T01:05:33.539Z,5.76
2022-11-30T01:08:03.073Z,5.78
2022-11-30T01:10:30.587Z,5.76
2022-11-30T01:12:58.292Z,5.81
2022-11-30T01:15:25.778Z,5.76
2022-11-30T01:17:53.276Z,5.77
2022-11-30T01:20:21.081Z,5.73
2022-11-30T01:22:48.667Z,5.74
2022-11-30T01:25:17.580Z,5.71
2022-11-30T01:27:45.095Z,5.78
2022-11-30T01:30:13.227Z,5.73
2022-11-30T01:32:40.703Z,5.71
2022-11-30T01:35:08.947Z,5.69
2022-11-30T01:37:36.451Z,5.76
2022-11-30T01:40:04.466Z,5.74
2022-11-30T01:42:33.399Z,5.74
2022-11-30T01:45:02.287Z,5.73
2022-11-30T01:47:34.092Z,5.67
2022-11-30T01:50:05.648Z,5.62
2022-11-30T01:52:38.258Z,5.64
2022-11-30T01:55:14.711Z,5.65
2022-11-30T01:57:49.158Z,5.67
2022-11-30T02:00:17.772Z,5.67
2022-11-30T02:02:54.090Z,5.70
2022-11-30T02:05:23.979Z,5.70
2022-11-30T02:07:51.637Z,5.59
2022-11-30T02:10:23.584Z,5.54
2022-11-30T02:13:09.608Z,5.55
2022-11-30T02:15:47.463Z,5.43
2022-11-30T02:18:16.148Z,5.47
2022-11-30T02:21:09.555Z,5.37
2022-11-30T02:24:04.371Z,5.37
2022-11-30T02:26:56.742Z,5.30
2022-11-30T02:29:29.591Z,5.15
2022-11-30T02:32:05.745Z,5.20
2022-11-30T02:34:37.069Z,5.15
2022-11-30T02:37:07.602Z,5.25
2022-11-30T02:39:35.296Z,5.18
2022-11-30T02:42:02.856Z,5.09
2022-11-30T02:44:31.705Z,5.12
2022-11-30T02:47:10.770Z,5.15
2022-11-30T02:49:45.423Z,5.23
2022-11-30T02:52:15.515Z,5.29
2022-11-30T02:54:43.191Z,5.31
2022-11-30T02:57:10.695Z,5.26
2022-11-30T02:59:40.405Z,5.17
2022-11-30T03:02:07.953Z,5.16
2022-11-30T03:04:35.466Z,5.17
2022-11-30T03:07:03.025Z,5.19
2022-11-30T03:09:30.502Z,5.04
2022-11-30T03:11:57.995Z,5.11
2022-11-30T03:14:25.444Z,5.00
2022-11-30T03:16:54.307Z,5.03
2022-11-30T03:19:21.819Z,5.02
2022-11-30T03:21:49.298Z,5.03
2022-11-30T03:24:16.863Z,4.98
2022-11-30T03:26:44.358Z,4.79
2022-11-30T03:29:11.837Z,4.80
2022-11-30T03:31:39.390Z,4.73
2022-11-30T03:34:08.226Z,4.77
2022-11-30T03:36:35.741Z,4.80
2022-11-30T03:39:03.734Z,4.80
2022-11-30T03:41:31.225Z,4.75
2022-11-30T03:43:58.715Z,4.62
2022-11-30T03:46:27.392Z,4.72
2022-11-30T03:48:55.384Z,4.70
2022-11-30T03:51:24.163Z,4.62
2022-11-30T03:53:51.661Z,4.68
2022-11-30T03:56:19.192Z,4.65
2022-11-30T03:58:46.732Z,4.64
2022-11-30T04:01:16.063Z,4.44
2022-11-30T04:03:44.174Z,4.55
2022-11-30T04:06:12.943Z,4.55
2022-11-30T04:08:42.446Z,4.49
2022-11-30T04:11:10.459Z,4.52
2022-11-30T04:13:38.639Z,4.44
2022-11-30T04:16:07.244Z,4.39
2022-11-30T04:18:36.401Z,4.36
2022-11-30T04:21:04.626Z,4.32
2022-11-30T04:23:34.077Z,4.41
2022-11-30T04:26:03.446Z,4.31
2022-11-30T04:28:30.931Z,4.33
2022-11-30T04:31:00.321Z,4.30
2022-11-30T04:33:28.531Z,4.35
2022-11-30T04:35:58.546Z,4.19
2022-11-30T04:38:26.479Z,4.33
2022-11-30T04:40:54.391Z,4.28
2022-11-30T04:43:23.843Z,4.23
2022-11-30T04:45:51.410Z,4.30
2022-11-30T04:48:20.055Z,4.19
2022-11-30T04:50:47.551Z,4.28
2022-11-30T04:53:15.027Z,4.25
2022-11-30T04:55:42.479Z,4.23
2022-11-30T04:58:10.087Z,4.10
2022-11-30T05:00:39.036Z,4.14
2022-11-30T05:03:06.517Z,4.17
2022-11-30T05:05:33.982Z,4.25
2022-11-30T05:08:02.299Z,4.11
2022-11-30T05:10:30.294Z,4.10
2022-11-30T05:12:57.990Z,4.10
2022-11-30T05:15:25.821Z,4.03
2022-11-30T05:17:54.619Z,4.11
2022-11-30T05:20:22.094Z,4.16
2022-11-30T05:22:50.050Z,4.25
2022-11-30T05:25:17.628Z,4.36
2022-11-30T05:27:45.231Z,4.38
2022-11-30T05:30:13.704Z,4.39
2022-11-30T05:32:41.170Z,4.38
2022-11-30T05:35:10.769Z,4.42
2022-11-30T05:37:38.331Z,4.41
2022-11-30T05:40:07.341Z,4.20
2022-11-30T05:42:34.836Z,4.33
2022-11-30T05:45:02.316Z,4.34
2022-11-30T05:47:29.803Z,4.25
2022-11-30T05:49:57.292Z,4.22
2022-11-30T05:52:26.108Z,4.25
2022-11-30T05:54:53.583Z,4.22
2022-11-30T05:57:21.060Z,4.21
2022-11-30T05:59:48.543Z,4.15
2022-11-30T06:02:16.174Z,4.16
2022-11-30T06:04:43.719Z,4.21
2022-11-30T06:07:11.891Z,4.32
2022-11-30T06:09:40.887Z,4.17
2022-11-30T06:12:08.975Z,4.23
2022-11-30T06:14:36.326Z,4.12
2022-11-30T06:17:04.043Z,4.14
2022-11-30T06:19:31.662Z,4.02
2022-11-30T06:21:59.144Z,4.15
2022-11-30T06:24:26.629Z,4.06
2022-11-30T06:26:55.490Z,4.19
2022-11-30T06:29:23.020Z,4.02
2022-11-30T06:31:50.604Z,4.03
2022-11-30T06:34:18.104Z,4.25
2022-11-30T06:36:45.632Z,4.20
2022-11-30T06:39:13.525Z,4.21
2022-11-30T06:41:41.092Z,4.11
2022-11-30T06:44:10.755Z,4.18
2022-11-30T06:46:38.532Z,4.13
2022-11-30T06:49:06.206Z,4.14
2022-11-30T06:51:34.311Z,4.13
2022-11-30T06:54:01.670Z,4.00
2022-11-30T06:56:29.168Z,4.12
2022-11-30T06:58:56.640Z,4.16
2022-11-30T07:01:25.562Z,4.22
2022-11-30T07:03:53.304Z,4.02
2022-11-30T07:06:20.988Z,4.01
2022-11-30T07:08:49.799Z,3.96
2022-11-30T07:11:17.371Z,4.04
2022-11-30T07:13:45.680Z,4.09
2022-11-30T07:16:15.608Z,4.10
2022-11-30T07:18:44.438Z,4.00
2022-11-30T07:21:12.075Z,4.02
2022-11-30T07:23:57.396Z,4.07
2022-11-30T07:26:25.841Z,4.05
2022-11-30T07:28:58.030Z,4.01
2022-11-30T07:31:27.715Z,4.14
2022-11-30T07:33:57.354Z,4.09
2022-11-30T07:36:29.612Z,4.25
2022-11-30T07:38:57.169Z,4.32
2022-11-30T07:41:24.748Z,4.31
2022-11-30T07:43:52.240Z,4.36
2022-11-30T07:46:19.920Z,4.39
2022-11-30T07:48:47.491Z,4.34
2022-11-30T07:51:18.043Z,4.60
2022-11-30T07:53:45.845Z,4.67
2022-11-30T07:56:16.436Z,4.61
2022-11-30T07:58:44.719Z,4.69
2022-11-30T08:01:13.874Z,4.73
2022-11-30T08:03:42.015Z,4.77
2022-11-30T08:06:11.800Z,4.89
2022-11-30T08:08:42.393Z,4.80
2022-11-30T08:11:13.339Z,4.88
2022-11-30T08:13:40.828Z,4.81
2022-11-30T08:16:10.196Z,4.88
2022-11-30T08:18:37.803Z,4.75
2022-11-30T08:21:08.497Z,4.78
2022-11-30T08:23:39.062Z,4.76
2022-11-30T08:26:11.088Z,4.87
2022-11-30T08:28:38.659Z,4.93
2022-11-30T08:31:08.060Z,4.95
2022-11-30T08:33:37.135Z,4.86
2022-11-30T08:36:09.058Z,4.97
2022-11-30T08:38:37.367Z,5.08
2022-11-30T08:41:05.111Z,5.09
2022-11-30T08:43:34.499Z,4.95
2022-11-30T08:46:11.412Z,4.88
2022-11-30T08:48:49.231Z,5.06
2022-11-30T08:51:19.043Z,5.13
2022-11-30T08:53:47.075Z,5.18
2022-11-30T08:56:15.261Z,5.18
2022-11-30T08:58:44.150Z,5.20
2022-11-30T09:01:13.920Z,5.32
2022-11-30T09:03:42.523Z,5.28
2022-11-30T09:06:12.803Z,5.32
2022-11-30T09:08:41.448Z,5.52
2022-11-30T09:11:10.735Z,5.56
2022-11-30T09:13:38.295Z,5.46
2022-11-30T09:16:08.233Z,5.56
2022-11-30T09:18:36.129Z,5.52
2022-11-30T09:21:05.458Z,5.49
2022-11-30T09:23:33.093Z,5.58
2022-11-30T09:26:04.448Z,5.78
2022-11-30T09:28:32.166Z,5.87
2022-11-30T09:31:02.848Z,6.01
2022-11-30T09:33:32.102Z,6.25
2022-11-30T09:36:00.815Z,6.27
2022-11-30T09:38:28.710Z,6.17
2022-11-30T09:40:58.746Z,6.07
2022-11-30T09:43:37.506Z,6.06
2022-11-30T09:46:08.657Z,6.20
2022-11-30T09:48:52.333Z,6.26
2022-11-30T09:51:23.518Z,6.43
2022-11-30T09:53:56.323Z,6.65
2022-11-30T09:56:29.461Z,6.74
2022-11-30T09:59:03.132Z,6.92
2022-11-30T10:01:32.990Z,6.67
2022-11-30T10:04:02.523Z,6.68
2022-11-30T10:06:39.833Z,6.82
2022-11-30T10:09:25.579Z,6.96
2022-11-30T10:12:00.242Z,6.93
2022-11-30T10:14:58.635Z,6.99
2022-11-30T10:17:39.065Z,6.96
2022-11-30T10:20:23.781Z,6.78
2022-11-30T10:23:07.999Z,6.67
2022-11-30T10:25:48.193Z,6.78
2022-11-30T10:28:45.565Z,6.69
2022-11-30T10:31:10.984Z,6.55
2022-11-30T10:33:44.182Z,6.59
2022-11-30T10:36:16.348Z,6.75
2022-11-30T10:38:47.701Z,6.86
2022-11-30T10:41:19.343Z,6.73
2022-11-30T10:43:52.918Z,6.67
2022-11-30T10:46:23.505Z,6.69
2022-11-30T10:48:55.653Z,6.80
2022-11-30T10:51:26.024Z,6.95
2022-11-30T10:53:53.633Z,7.12
2022-11-30T10:56:21.123Z,7.00
2022-11-30T10:58:56.251Z,6.95
2022-11-30T11:01:33.824Z,6.97
2022-11-30T11:04:17.215Z,7.03
2022-11-30T11:06:48.647Z,7.23
2022-11-30T11:09:35.138Z,7.03
2022-11-30T11:12:04.431Z,7.21
2022-11-30T11:14:36.459Z,7.14
2022-11-30T11:17:06.773Z,7.17
2022-11-30T11:19:38.178Z,7.22
2022-11-30T11:22:15.808Z,7.40
2022-11-30T11:24:43.750Z,7.23
2022-11-30T11:27:23.887Z,7.37
2022-11-30T11:30:01.924Z,7.20
2022-11-30T11:32:30.996Z,7.07
2022-11-30T11:34:59.344Z,6.90
2022-11-30T11:37:31.002Z,6.75
2022-11-30T11:40:01.669Z,6.86
2022-11-30T11:42:31.803Z,6.82
2022-11-30T11:45:01.632Z,6.83
2022-11-30T11:47:38.672Z,6.89
2022-11-30T11:50:50.300Z,6.93
2022-11-30T11:53:25.865Z,6.95
2022-11-30T11:55:57.415Z,6.80
2022-11-30T11:58:33.888Z,6.81
2022-11-30T12:01:31.518Z,6.72
2022-11-30T12:04:05.894Z,6.77
2022-11-30T12:06:35.198Z,6.72
2022-11-30T12:09:11.627Z,6.68
2022-11-30T12:11:43.474Z,6.61
2022-11-30T12:14:13.665Z,6.64
2022-11-30T12:17:02.159Z,6.65
2022-11-30T12:19:38.392Z,6.61
2022-11-30T12:22:17.299Z,6.63
2022-11-30T12:25:05.493Z,6.55
2022-11-30T12:27:42.455Z,6.62
2022-11-30T12:30:16.721Z,6.62
2022-11-30T12:33:09.430Z,6.43
2022-11-30T12:35:47.759Z,6.39
2022-11-30T12:38:27.025Z,6.42
2022-11-30T12:41:02.856Z,6.40
2022-11-30T12:43:44.000Z,6.40
2022-11-30T12:46:22.384Z,6.38
2022-11-30T12:49:00.992Z,6.53
2022-11-30T12:51:34.299Z,6.73
2022-11-30T12:54:08.775Z,6.82
2022-11-30T12:56:46.162Z,7.01
2022-11-30T12:59:31.611Z,7.00
2022-11-30T13:02:17.848Z,7.00
2022-11-30T13:04:56.359Z,6.85
2022-11-30T13:07:31.133Z,6.74
2022-11-30T13:10:01.547Z,6.79
2022-11-30T13:12:36.708Z,6.76
2022-11-30T13:15:09.823Z,6.73
2022-11-30T13:17:41.797Z,6.78
2022-11-30T13:20:21.239Z,6.73
2022-11-30T13:22:54.689Z,6.74
2022-11-30T13:26:06.147Z,6.63
2022-11-30T13:28:32.402Z,6.68
2022-11-30T13:31:06.833Z,6.68
2022-11-30T13:33:49.149Z,6.65
2022-11-30T13:36:28.070Z,6.73
2022-11-30T13:39:20.734Z,6.78
2022-11-30T13:41:50.379Z,6.66
2022-11-30T13:44:30.299Z,6.67
2022-11-30T13:46:58.287Z,6.63
2022-11-30T13:49:29.130Z,6.55
2022-11-30T13:52:21.384Z,6.57
2022-11-30T13:54:46.479Z,6.61
2022-11-30T13:57:19.932Z,6.62
2022-11-30T13:59:51.588Z,6.69
2022-11-30T14:02:59.185Z,6.66
2022-11-30T14:05:36.150Z,6.59
2022-11-30T14:08:32.323Z,6.55
2022-11-30T14:11:38.376Z,6.53
2022-11-30T14:14:47.387Z,6.55
2022-11-30T14:17:20.206Z,6.55
2022-11-30T14:19:53.040Z,6.47
2022-11-30T14:22:20.743Z,6.46
2022-11-30T14:24:49.940Z,6.39
2022-11-30T14:27:21.064Z,6.37
2022-11-30T14:29:53.281Z,6.41
2022-11-30T14:32:30.129Z,6.45
2022-11-30T14:35:08.040Z,6.32
2022-11-30T14:37:40.872Z,6.20
2022-11-30T14:40:11.941Z,6.22
2022-11-30T14:42:48.292Z,6.17
2022-11-30T14:45:21.160Z,6.32
2022-11-30T14:47:52.539Z,6.34
2022-11-30T14:50:24.245Z,6.32
2022-11-30T14:53:01.663Z,6.24
2022-11-30T14:55:34.367Z,6.16
2022-11-30T14:58:14.264Z,6.12
2022-11-30T15:00:44.712Z,6.19
2022-11-30T15:03:23.901Z,6.28
2022-11-30T15:05:53.044Z,6.28
2022-11-30T15:08:20.935Z,6.25
2022-11-30T15:10:48.874Z,6.36
2022-11-30T15:13:19.609Z,6.49
2022-11-30T15:15:52.421Z,6.43
2022-11-30T15:18:23.015Z,6.54
2022-11-30T15:20:55.364Z,6.46
2022-11-30T15:23:23.439Z,6.34
2022-11-30T15:25:53.433Z,6.47
2022-11-30T15:28:24.044Z,6.27
2022-11-30T15:30:55.723Z,6.26
2022-11-30T15:33:29.955Z,6.09
2022-11-30T15:36:18.820Z,6.03
2022-11-30T15:38:51.004Z,5.98
2022-11-30T15:41:21.287Z,6.11
2022-11-30T15:43:51.444Z,6.25
2022-11-30T15:46:30.550Z,6.18
2022-11-30T15:49:18.847Z,6.33
2022-11-30T15:51:53.194Z,6.31
2022-11-30T15:54:44.939Z,6.19
2022-11-30T15:57:12.796Z,6.28
2022-11-30T15:59:41.343Z,6.24
2022-11-30T16:02:26.159Z,6.16
2022-11-30T16:05:23.940Z,6.06
2022-11-30T16:07:53.030Z,6.06
2022-11-30T16:10:23.375Z,6.12
2022-11-30T16:12:53.526Z,6.30
2022-11-30T16:15:23.337Z,6.32
2022-11-30T16:17:52.076Z,6.21
2022-11-30T16:20:21.620Z,6.15
2022-11-30T16:22:50.125Z,6.12
2022-11-30T16:25:19.278Z,6.16
2022-11-30T16:27:47.603Z,6.09
2022-11-30T16:30:17.389Z,6.15
2022-11-30T16:32:45.336Z,6.28
2022-11-30T16:35:21.623Z,6.13
2022-11-30T16:37:50.915Z,6.32
2022-11-30T16:40:19.828Z,6.33
2022-11-30T16:42:49.703Z,6.31
2022-11-30T16:45:20.619Z,6.26
2022-11-30T16:47:48.130Z,6.38
2022-11-30T16:50:16.136Z,6.30
2022-11-30T16:52:43.709Z,6.19
2022-11-30T16:55:15.297Z,6.30
2022-11-30T16:57:43.239Z,6.22
2022-11-30T17:00:13.155Z,6.04
2022-11-30T17:02:45.849Z,6.66
2022-11-30T17:05:16.071Z,6.74
2022-11-30T17:07:43.941Z,7.08
2022-11-30T17:10:12.805Z,7.15
2022-11-30T17:12:42.796Z,7.32
2022-11-30T17:15:15.349Z,7.22
2022-11-30T17:17:42.825Z,7.07
2022-11-30T17:20:11.096Z,7.27
2022-11-30T17:22:39.725Z,7.56
2022-11-30T17:25:12.353Z,7.60
2022-11-30T17:27:41.181Z,7.55
2022-11-30T17:30:09.897Z,7.49
2022-11-30T17:32:37.441Z,7.44
2022-11-30T17:35:05.260Z,7.17
2022-11-30T17:37:32.766Z,7.35
2022-11-30T17:40:00.508Z,7.52
2022-11-30T17:42:29.914Z,7.34
2022-11-30T17:44:58.735Z,7.66
2022-11-30T17:47:26.383Z,7.37
2022-11-30T17:49:53.875Z,7.10
2022-11-30T17:52:21.352Z,6.97
2022-11-30T17:54:49.101Z,7.16
2022-11-30T17:57:16.727Z,7.19
2022-11-30T17:59:44.284Z,6.96
2022-11-30T18:02:13.468Z,6.83
2022-11-30T18:04:40.985Z,6.42
2022-11-30T18:07:08.648Z,6.63
2022-11-30T18:09:40.964Z,6.46
2022-11-30T18:12:10.587Z,6.43
2022-11-30T18:14:38.170Z,6.26
2022-11-30T18:17:05.825Z,6.07
2022-11-30T18:19:34.788Z,6.01
2022-11-30T18:22:02.311Z,5.95
2022-11-30T18:24:29.885Z,5.76
2022-11-30T18:26:57.365Z,5.79
2022-11-30T18:29:25.613Z,5.80
2022-11-30T18:31:53.271Z,5.62
2022-11-30T18:34:20.915Z,5.82
2022-11-30T18:36:49.815Z,5.92
2022-11-30T18:39:17.279Z,5.88
2022-11-30T18:41:44.933Z,5.94
2022-11-30T18:44:12.613Z,5.88
2022-11-30T18:46:40.146Z,5.72
2022-11-30T18:49:07.796Z,5.77
2022-11-30T18:51:35.596Z,5.64
2022-11-30T18:54:06.679Z,5.65
2022-11-30T18:56:37.394Z,5.52
2022-11-30T18:59:06.886Z,5.41
2022-11-30T19:01:36.062Z,5.28
2022-11-30T19:04:06.542Z,5.31
2022-11-30T19:06:34.677Z,5.16
2022-11-30T19:09:05.483Z,5.24
2022-11-30T19:11:33.413Z,5.29
2022-11-30T19:14:01.700Z,5.58
2022-11-30T19:16:30.824Z,5.47
2022-11-30T19:19:01.295Z,5.30
2022-11-30T19:21:29.367Z,5.28
2022-11-30T19:23:57.812Z,5.28
2022-11-30T19:26:27.915Z,5.11
2022-11-30T19:28:55.868Z,5.09
2022-11-30T19:31:25.055Z,4.99
2022-11-30T19:33:54.886Z,5.07
2022-11-30T19:36:24.830Z,4.87
2022-11-30T19:38:52.489Z,4.82
2022-11-30T19:41:21.344Z,4.56
2022-11-30T19:44:01.004Z,4.50
2022-11-30T19:46:29.051Z,4.37
2022-11-30T19:48:58.032Z,4.27
2022-11-30T19:51:25.584Z,4.37
2022-11-30T19:53:55.610Z,4.56
2022-11-30T19:56:24.067Z,4.67
2022-11-30T19:58:53.296Z,4.56
2022-11-30T20:01:23.712Z,4.58
2022-11-30T20:03:51.501Z,4.57
2022-11-30T20:06:19.329Z,4.65
2022-11-30T20:08:46.895Z,4.38
2022-11-30T20:11:16.299Z,4.26
2022-11-30T20:13:44.263Z,4.37
2022-11-30T20:16:14.852Z,4.40
2022-11-30T20:18:46.025Z,4.47
2022-11-30T20:21:15.605Z,4.27
2022-11-30T20:23:44.239Z,3.91
2022-11-30T20:26:17.487Z,3.68
2022-11-30T20:28:45.746Z,3.68
2022-11-30T20:31:16.320Z,3.98
2022-11-30T20:33:44.513Z,4.14
2022-11-30T20:36:14.057Z,4.03
2022-11-30T20:38:41.647Z,4.27
2022-11-30T20:41:12.029Z,4.21
2022-11-30T20:43:39.576Z,4.12
2022-11-30T20:46:15.468Z,4.15
2022-11-30T20:48:46.631Z,4.07
2022-11-30T20:51:32.431Z,4.25
2022-11-30T20:54:02.558Z,4.25
2022-11-30T20:56:30.059Z,4.08
2022-11-30T20:59:01.189Z,4.08
2022-11-30T21:01:30.166Z,4.07
2022-11-30T21:03:59.439Z,3.89
2022-11-30T21:06:27.067Z,3.92
2022-11-30T21:08:54.663Z,3.92
2022-11-30T21:11:23.192Z,4.10
2022-11-30T21:13:51.917Z,4.21
2022-11-30T21:16:27.363Z,4.35
2022-11-30T21:18:57.699Z,4.28
2022-11-30T21:21:28.074Z,4.26
2022-11-30T21:23:55.607Z,4.25
2022-11-30T21:26:24.542Z,4.08
2022-11-30T21:28:54.412Z,3.94
2022-11-30T21:31:22.405Z,3.90
2022-11-30T21:33:54.027Z,3.66
2022-11-30T21:36:23.782Z,3.77
2022-11-30T21:38:58.160Z,4.05
2022-11-30T21:41:30.522Z,4.06
2022-11-30T21:43:58.012Z,3.83
2022-11-30T21:46:25.520Z,3.91
2022-11-30T21:48:53.550Z,3.80
2022-11-30T21:51:22.443Z,3.80
2022-11-30T21:53:51.764Z,3.58
2022-11-30T21:56:20.044Z,3.69
2022-11-30T21:58:48.686Z,3.94
2022-11-30T22:01:17.003Z,3.81
2022-11-30T22:03:44.464Z,3.83
2022-11-30T22:06:13.193Z,3.59
2022-11-30T22:08:41.165Z,3.58
2022-11-30T22:11:11.086Z,3.70
2022-11-30T22:13:39.131Z,3.43
2022-11-30T22:16:07.807Z,3.63
2022-11-30T22:18:35.470Z,3.64
2022-11-30T22:21:04.119Z,3.73
2022-11-30T22:23:31.815Z,3.74
2022-11-30T22:26:09.702Z,3.69
2022-11-30T22:28:37.066Z,3.54
2022-11-30T22:31:05.207Z,3.64
2022-11-30T22:33:33.323Z,3.64
2022-11-30T22:36:00.721Z,3.38
2022-11-30T22:38:28.367Z,3.42
2022-11-30T22:40:55.892Z,3.44
2022-11-30T22:43:24.547Z,3.49
2022-11-30T22:45:51.901Z,3.54
2022-11-30T22:48:19.256Z,3.60
2022-11-30T22:50:46.607Z,3.52
2022-11-30T22:53:13.962Z,3.37
2022-11-30T22:55:46.628Z,3.23
2022-11-30T22:58:15.610Z,3.28
2022-11-30T23:00:44.288Z,3.34
2022-11-30T23:03:11.741Z,3.24
2022-11-30T23:05:39.141Z,3.39
2022-11-30T23:08:06.568Z,3.43
2022-11-30T23:10:33.971Z,3.39
2022-11-30T23:13:01.282Z,3.43
2022-11-30T23:15:28.601Z,3.43
2022-11-30T23:17:57.291Z,3.30
2022-11-30T23:20:24.626Z,3.30
2022-11-30T23:22:51.964Z,3.22
2022-11-30T23:25:19.324Z,3.23
2022-11-30T23:27:46.687Z,3.09
2022-11-30T23:30:14.136Z,3.18
2022-11-30T23:32:41.521Z,3.43
2022-11-30T23:35:10.505Z,3.35
2022-11-30T23:37:37.851Z,3.34
2022-11-30T23:40:05.740Z,3.39
2022-11-30T23:42:33.149Z,3.20
2022-11-30T23:45:01.156Z,3.22
2022-11-30T23:47:28.561Z,3.10
2022-11-30T23:49:55.887Z,3.12
2022-11-30T23:52:24.664Z,3.09
2022-11-30T23:54:51.988Z,3.12
2022-11-30T23:57:19.378Z,3.13
2022-11-30T23:59:47.143Z,3.09
